createdAt,value
2023-04-15T00:01:51.160Z,100839.56
2023-04-15T00:04:17.687Z,100837.81
2023-04-15T00:06:51.367Z,100831.63
2023-04-15T00:09:18.914Z,100823.00
2023-04-15T00:11:46.237Z,100826.22
2023-04-15T00:14:13.619Z,100827.75
2023-04-15T00:16:40.102Z,100821.84
2023-04-15T00:19:06.511Z,100825.97
2023-04-15T00:21:33.222Z,100823.47
2023-04-15T00:23:59.584Z,100819.84
2023-04-15T00:26:25.958Z,100816.25
2023-04-15T00:28:52.379Z,100812.75
2023-04-15T00:31:18.881Z,100827.56
2023-04-15T00:33:45.917Z,100827.53
2023-04-15T00:36:13.019Z,100810.16
2023-04-15T00:38:39.413Z,100821.66
2023-04-15T00:41:05.897Z,100814.50
2023-04-15T00:43:42.388Z,100818.81
2023-04-15T00:46:10.515Z,100817.19
2023-04-15T00:48:43.766Z,100811.00
2023-04-15T00:51:10.625Z,100814.41
2023-04-15T00:53:37.004Z,100812.63
2023-04-15T00:56:03.578Z,100822.16
2023-04-15T00:58:29.944Z,100819.63
2023-04-15T01:00:57.199Z,100821.31
2023-04-15T01:03:23.682Z,100829.13
2023-04-15T01:05:50.362Z,100818.69
2023-04-15T01:08:16.896Z,100816.00
2023-04-15T01:10:43.928Z,100816.13
2023-04-15T01:13:10.284Z,100812.75
2023-04-15T01:15:36.665Z,100815.28
2023-04-15T01:18:03.137Z,100807.47
2023-04-15T01:20:33.703Z,100809.28
2023-04-15T01:23:00.421Z,100811.81
2023-04-15T01:25:34.693Z,100797.94
2023-04-15T01:28:01.305Z,100798.84
2023-04-15T01:30:27.884Z,100797.94
2023-04-15T01:32:54.400Z,100794.38
2023-04-15T01:35:21.483Z,100798.75
2023-04-15T01:37:48.946Z,100793.53
2023-04-15T01:40:17.295Z,100787.50
2023-04-15T01:42:44.570Z,100787.53
2023-04-15T01:45:11.448Z,100783.09
2023-04-15T01:47:38.124Z,100783.94
2023-04-15T01:50:04.990Z,100782.19
2023-04-15T01:52:32.056Z,100776.19
2023-04-15T01:54:58.581Z,100771.84
2023-04-15T01:57:25.138Z,100774.50
2023-04-15T01:59:51.545Z,100779.66
2023-04-15T02:02:17.937Z,100778.78
2023-04-15T02:04:44.741Z,100776.13
2023-04-15T02:07:11.310Z,100771.72
2023-04-15T02:09:38.581Z,100767.72
2023-04-15T02:12:07.293Z,100761.56
2023-04-15T02:14:38.492Z,100765.94
2023-04-15T02:17:08.222Z,100761.56
2023-04-15T02:19:35.597Z,100755.44
2023-04-15T02:22:03.280Z,100757.97
2023-04-15T02:24:30.628Z,100757.88
2023-04-15T02:26:57.384Z,100761.31
2023-04-15T02:29:23.748Z,100763.94
2023-04-15T02:31:50.186Z,100766.47
2023-04-15T02:34:16.619Z,100767.34
2023-04-15T02:36:45.541Z,100772.53
2023-04-15T02:39:14.726Z,100771.63
2023-04-15T02:41:43.406Z,100769.94
2023-04-15T02:44:18.944Z,100772.53
2023-04-15T02:46:53.543Z,100770.81
2023-04-15T02:49:25.546Z,100766.44
2023-04-15T02:51:59.934Z,100767.34
2023-04-15T02:54:28.644Z,100761.25
2023-04-15T02:56:58.009Z,100766.50
2023-04-15T02:59:30.961Z,100762.53
2023-04-15T03:02:00.864Z,100762.38
2023-04-15T03:04:30.085Z,100770.25
2023-04-15T03:06:56.831Z,100765.91
2023-04-15T03:09:23.921Z,100762.34
2023-04-15T03:11:53.477Z,100759.72
2023-04-15T03:14:20.751Z,100768.38
2023-04-15T03:16:47.937Z,100767.38
2023-04-15T03:19:16.615Z,100767.34
2023-04-15T03:21:43.864Z,100767.34
2023-04-15T03:24:10.607Z,100761.19
2023-04-15T03:26:37.035Z,100755.88
2023-04-15T03:29:10.140Z,100754.09
2023-04-15T03:31:36.704Z,100754.97
2023-04-15T03:34:03.102Z,100763.66
2023-04-15T03:36:32.834Z,100760.22
2023-04-15T03:38:59.862Z,100762.94
2023-04-15T03:41:28.402Z,100758.56
2023-04-15T03:43:54.856Z,100765.50
2023-04-15T03:46:21.375Z,100763.84
2023-04-15T03:48:48.267Z,100756.00
2023-04-15T03:51:14.679Z,100755.88
2023-04-15T03:53:41.081Z,100755.88
2023-04-15T03:56:07.507Z,100758.47
2023-04-15T03:58:33.871Z,100763.69
2023-04-15T04:01:00.252Z,100766.34
2023-04-15T04:03:27.429Z,100770.69
2023-04-15T04:05:54.036Z,100771.66
2023-04-15T04:08:21.653Z,100764.69
2023-04-15T04:10:48.002Z,100765.59
2023-04-15T04:13:14.347Z,100762.13
2023-04-15T04:15:40.796Z,100762.13
2023-04-15T04:18:07.276Z,100767.38
2023-04-15T04:20:34.023Z,100767.50
2023-04-15T04:23:00.372Z,100769.97
2023-04-15T04:25:27.413Z,100772.53
2023-04-15T04:27:53.792Z,100779.53
2023-04-15T04:30:20.147Z,100785.56
2023-04-15T04:32:46.577Z,100787.38
2023-04-15T04:35:12.945Z,100783.00
2023-04-15T04:37:39.332Z,100767.44
2023-04-15T04:40:06.444Z,100776.59
2023-04-15T04:42:32.894Z,100774.84
2023-04-15T04:44:59.257Z,100773.44
2023-04-15T04:47:25.803Z,100781.84
2023-04-15T04:49:52.182Z,100770.56
2023-04-15T04:52:18.546Z,100776.53
2023-04-15T04:54:45.072Z,100768.75
2023-04-15T04:57:13.450Z,100764.22
2023-04-15T04:59:40.090Z,100768.41
2023-04-15T05:02:07.231Z,100767.66
2023-04-15T05:04:34.378Z,100765.16
2023-04-15T05:07:00.757Z,100771.13
2023-04-15T05:09:28.064Z,100772.69
2023-04-15T05:11:54.422Z,100771.75
2023-04-15T05:14:22.844Z,100773.84
2023-04-15T05:16:50.252Z,100774.16
2023-04-15T05:19:16.599Z,100776.84
2023-04-15T05:21:43.010Z,100770.47
2023-04-15T05:24:09.389Z,100783.06
2023-04-15T05:26:35.895Z,100780.31
2023-04-15T05:29:02.715Z,100781.94
2023-04-15T05:31:29.316Z,100779.03
2023-04-15T05:33:55.731Z,100783.81
2023-04-15T05:36:22.104Z,100785.63
2023-04-15T05:38:48.457Z,100784.16
2023-04-15T05:41:17.175Z,100776.09
2023-04-15T05:43:45.658Z,100776.75
2023-04-15T05:46:12.028Z,100784.72
2023-04-15T05:48:38.462Z,100784.47
2023-04-15T05:51:05.188Z,100787.72
2023-04-15T05:53:31.889Z,100789.31
2023-04-15T05:55:58.300Z,100789.25
2023-04-15T05:58:24.678Z,100786.78
2023-04-15T06:00:51.200Z,100798.06
2023-04-15T06:03:17.959Z,100796.09
2023-04-15T06:05:45.424Z,100804.16
2023-04-15T06:08:12.416Z,100803.75
2023-04-15T06:10:38.892Z,100807.81
2023-04-15T06:13:05.768Z,100811.06
2023-04-15T06:15:32.388Z,100809.16
2023-04-15T06:17:59.238Z,100807.25
2023-04-15T06:20:26.012Z,100815.19
2023-04-15T06:22:52.646Z,100813.44
2023-04-15T06:25:20.263Z,100816.97
2023-04-15T06:27:46.764Z,100818.75
2023-04-15T06:30:13.451Z,100822.00
2023-04-15T06:32:42.970Z,100816.94
2023-04-15T06:35:09.928Z,100815.28
2023-04-15T06:37:36.361Z,100822.97
2023-04-15T06:40:06.226Z,100830.94
2023-04-15T06:42:32.994Z,100830.00
2023-04-15T06:44:59.352Z,100830.97
2023-04-15T06:47:26.146Z,100829.88
2023-04-15T06:49:52.525Z,100841.50
2023-04-15T06:52:19.338Z,100840.59
2023-04-15T06:54:45.791Z,100844.03
2023-04-15T06:57:12.227Z,100841.81
2023-04-15T06:59:38.657Z,100839.22
2023-04-15T07:02:05.105Z,100845.00
2023-04-15T07:04:31.677Z,100846.72
2023-04-15T07:06:58.192Z,100847.72
2023-04-15T07:09:24.734Z,100845.22
2023-04-15T07:11:51.524Z,100850.19
2023-04-15T07:14:18.135Z,100849.84
2023-04-15T07:16:44.915Z,100850.50
2023-04-15T07:19:11.692Z,100850.50
2023-04-15T07:21:39.459Z,100850.59
2023-04-15T07:24:08.549Z,100851.72
2023-04-15T07:26:34.886Z,100854.34
2023-04-15T07:29:01.749Z,100864.78
2023-04-15T07:31:28.510Z,100858.34
2023-04-15T07:33:55.093Z,100860.00
2023-04-15T07:36:21.478Z,100862.53
2023-04-15T07:38:54.164Z,100864.09
2023-04-15T07:41:21.658Z,100866.66
2023-04-15T07:43:48.723Z,100868.44
2023-04-15T07:46:15.380Z,100870.19
2023-04-15T07:48:42.643Z,100872.63
2023-04-15T07:51:10.713Z,100887.38
2023-04-15T07:53:37.282Z,100880.41
2023-04-15T07:56:03.814Z,100881.34
2023-04-15T07:58:37.161Z,100881.47
2023-04-15T08:01:06.791Z,100885.66
2023-04-15T08:03:33.729Z,100880.13
2023-04-15T08:06:00.595Z,100880.91
2023-04-15T08:08:27.487Z,100889.50
2023-04-15T08:10:53.893Z,100888.03
2023-04-15T08:13:20.784Z,100889.72
2023-04-15T08:16:13.689Z,100893.25
2023-04-15T08:18:40.069Z,100900.84
2023-04-15T08:21:06.627Z,100898.16
2023-04-15T08:23:33.505Z,100902.38
2023-04-15T08:25:59.932Z,100905.03
2023-04-15T08:28:26.307Z,100903.47
2023-04-15T08:30:53.159Z,100907.72
2023-04-15T08:33:19.531Z,100908.34
2023-04-15T08:35:46.516Z,100908.16
2023-04-15T08:38:12.908Z,100904.50
2023-04-15T08:40:44.220Z,100908.16
2023-04-15T08:43:15.722Z,100909.06
2023-04-15T08:45:44.023Z,100910.00
2023-04-15T08:48:16.497Z,100912.53
2023-04-15T08:50:43.312Z,100910.09
2023-04-15T08:53:11.597Z,100906.69
2023-04-15T08:55:45.816Z,100912.56
2023-04-15T08:58:16.422Z,100917.34
2023-04-15T09:00:42.968Z,100919.09
2023-04-15T09:03:09.754Z,100917.31
2023-04-15T09:05:37.322Z,100921.47
2023-04-15T09:08:05.302Z,100923.88
2023-04-15T09:10:33.469Z,100923.59
2023-04-15T09:13:03.207Z,100922.50
2023-04-15T09:15:30.316Z,100924.09
2023-04-15T09:17:57.053Z,100933.84
2023-04-15T09:20:23.675Z,100930.59
2023-04-15T09:22:51.083Z,100926.50
2023-04-15T09:25:24.258Z,100933.75
2023-04-15T09:27:52.583Z,100928.25
2023-04-15T09:30:19.033Z,100924.38
2023-04-15T09:32:54.025Z,100922.31
2023-04-15T09:35:22.226Z,100924.00
2023-04-15T09:37:49.829Z,100928.50
2023-04-15T09:40:32.534Z,100924.13
2023-04-15T09:42:59.432Z,100925.56
2023-04-15T09:45:28.919Z,100926.50
2023-04-15T09:48:14.419Z,100930.00
2023-04-15T09:50:42.665Z,100936.44
2023-04-15T09:53:20.076Z,100939.34
2023-04-15T09:55:50.238Z,100937.88
2023-04-15T09:58:33.234Z,100931.66
2023-04-15T10:01:01.796Z,100936.06
2023-04-15T10:03:35.330Z,100933.41
2023-04-15T10:06:03.404Z,100933.91
2023-04-15T10:08:32.773Z,100943.47
2023-04-15T10:11:01.840Z,100934.34
2023-04-15T10:13:33.245Z,100941.38
2023-04-15T10:16:07.479Z,100936.38
2023-04-15T10:18:40.594Z,100945.09
2023-04-15T10:21:09.091Z,100943.75
2023-04-15T10:23:35.946Z,100944.53
2023-04-15T10:26:04.355Z,100945.09
2023-04-15T10:28:30.829Z,100941.91
2023-04-15T10:30:59.886Z,100949.38
2023-04-15T10:33:28.568Z,100951.50
2023-04-15T10:35:55.829Z,100954.09
2023-04-15T10:38:40.607Z,100947.47
2023-04-15T10:41:24.182Z,100944.41
2023-04-15T10:43:53.151Z,100944.19
2023-04-15T10:46:41.628Z,100934.75
2023-04-15T10:49:12.384Z,100931.38
2023-04-15T10:51:44.284Z,100927.13
2023-04-15T10:54:24.561Z,100921.88
2023-04-15T10:56:52.601Z,100926.81
2023-04-15T10:59:20.411Z,100926.75
2023-04-15T11:01:53.970Z,100931.69
2023-04-15T11:04:56.295Z,100934.63
2023-04-15T11:07:48.546Z,100948.38
2023-04-15T11:10:17.687Z,100961.72
2023-04-15T11:12:45.526Z,100963.03
2023-04-15T11:15:30.957Z,100969.56
2023-04-15T11:17:58.662Z,100961.56
2023-04-15T11:20:25.712Z,100971.03
2023-04-15T11:22:53.640Z,100966.38
2023-04-15T11:25:40.252Z,100971.66
2023-04-15T11:28:07.588Z,100981.72
2023-04-15T11:30:36.845Z,100979.84
2023-04-15T11:33:06.083Z,100982.53
2023-04-15T11:35:32.995Z,100991.47
2023-04-15T11:38:03.836Z,100991.16
2023-04-15T11:40:31.440Z,100992.75
2023-04-15T11:43:21.069Z,100993.69
2023-04-15T11:45:59.090Z,101004.09
2023-04-15T11:48:28.180Z,100999.75
2023-04-15T11:50:57.097Z,100993.53
2023-04-15T11:53:24.572Z,100998.72
2023-04-15T11:55:52.835Z,101003.34
2023-04-15T11:58:24.347Z,101006.03
2023-04-15T12:00:57.688Z,101005.16
2023-04-15T12:03:38.377Z,101007.25
2023-04-15T12:06:08.670Z,101003.44
2023-04-15T12:09:06.310Z,101012.22
2023-04-15T12:11:44.751Z,101015.31
2023-04-15T12:14:12.810Z,101031.31
2023-04-15T12:16:48.863Z,101030.59
2023-04-15T12:19:24.372Z,101031.97
2023-04-15T12:21:51.310Z,101039.91
2023-04-15T12:24:23.877Z,101039.84
2023-04-15T12:26:57.999Z,101038.97
2023-04-15T12:29:28.735Z,101051.41
2023-04-15T12:32:07.707Z,101048.84
2023-04-15T12:34:42.431Z,101051.53
2023-04-15T12:37:11.749Z,101057.59
2023-04-15T12:39:44.707Z,101056.66
2023-04-15T12:42:11.946Z,101059.22
2023-04-15T12:44:42.547Z,101061.31
2023-04-15T12:47:10.753Z,101062.44
2023-04-15T12:49:37.753Z,101066.72
2023-04-15T12:52:04.454Z,101074.25
2023-04-15T12:54:31.746Z,101075.00
2023-04-15T12:56:59.086Z,101070.84
2023-04-15T12:59:25.856Z,101075.00
2023-04-15T13:01:53.449Z,101076.84
2023-04-15T13:04:20.699Z,101074.97
2023-04-15T13:06:48.923Z,101080.25
2023-04-15T13:09:15.683Z,101074.06
2023-04-15T13:11:43.114Z,101077.53
2023-04-15T13:14:12.766Z,101073.88
2023-04-15T13:16:39.171Z,101079.13
2023-04-15T13:19:06.133Z,101088.00
2023-04-15T13:21:35.147Z,101076.63
2023-04-15T13:24:02.410Z,101084.38
2023-04-15T13:26:29.165Z,101085.09
2023-04-15T13:28:56.046Z,101089.38
2023-04-15T13:31:22.503Z,101092.31
2023-04-15T13:33:55.732Z,101098.38
2023-04-15T13:36:29.329Z,101094.09
2023-04-15T13:38:55.849Z,101094.66
2023-04-15T13:41:22.655Z,101092.34
2023-04-15T13:43:49.030Z,101080.25
2023-04-15T13:46:15.515Z,101090.72
2023-04-15T13:48:41.979Z,101089.66
2023-04-15T13:51:08.380Z,101097.00
2023-04-15T13:53:38.901Z,101093.81
2023-04-15T13:56:09.969Z,101094.38
2023-04-15T13:58:37.261Z,101097.16
2023-04-15T14:01:05.825Z,101097.91
2023-04-15T14:03:33.717Z,101099.34
2023-04-15T14:06:00.576Z,101108.19
2023-04-15T14:08:27.133Z,101107.81
2023-04-15T14:10:53.500Z,101107.91
2023-04-15T14:13:19.922Z,101106.06
2023-04-15T14:15:47.462Z,101111.94
2023-04-15T14:18:13.851Z,101113.72
2023-04-15T14:20:40.561Z,101117.44
2023-04-15T14:23:07.002Z,101116.88
2023-04-15T14:25:34.181Z,101122.34
2023-04-15T14:28:01.632Z,101134.84
2023-04-15T14:30:28.175Z,101128.44
2023-04-15T14:32:54.755Z,101127.22
2023-04-15T14:35:21.163Z,101137.38
2023-04-15T14:37:47.751Z,101135.88
2023-04-15T14:40:14.164Z,101154.72
2023-04-15T14:42:40.513Z,101149.69
2023-04-15T14:45:07.423Z,101148.63
2023-04-15T14:47:33.838Z,101157.81
2023-04-15T14:50:00.585Z,101154.88
2023-04-15T14:52:26.955Z,101165.84
2023-04-15T14:54:53.329Z,101171.88
2023-04-15T14:57:19.711Z,101168.22
2023-04-15T14:59:46.309Z,101171.50
2023-04-15T15:02:17.272Z,101173.81
2023-04-15T15:04:52.903Z,101175.41
2023-04-15T15:07:19.426Z,101184.84
2023-04-15T15:09:46.096Z,101191.38
2023-04-15T15:12:12.504Z,101187.31
2023-04-15T15:14:38.862Z,101197.75
2023-04-15T15:17:05.213Z,101200.44
2023-04-15T15:19:31.714Z,101206.50
2023-04-15T15:21:58.075Z,101192.63
2023-04-15T15:24:24.488Z,101198.72
2023-04-15T15:26:51.299Z,101206.63
2023-04-15T15:29:17.685Z,101202.81
2023-04-15T15:31:44.076Z,101200.63
2023-04-15T15:34:10.486Z,101204.34
2023-04-15T15:36:36.858Z,101209.31
2023-04-15T15:39:04.904Z,101212.88
2023-04-15T15:41:33.314Z,101215.94
2023-04-15T15:43:59.951Z,101220.41
2023-04-15T15:46:28.124Z,101221.25
2023-04-15T15:48:55.273Z,101217.66
2023-04-15T15:51:21.673Z,101222.09
2023-04-15T15:53:48.043Z,101230.63
2023-04-15T15:56:14.532Z,101235.28
2023-04-15T15:58:43.731Z,101239.34
2023-04-15T16:01:10.973Z,101252.69
2023-04-15T16:03:37.563Z,101253.00
2023-04-15T16:06:04.595Z,101255.72
2023-04-15T16:08:30.949Z,101259.38
2023-04-15T16:10:58.454Z,101263.09
2023-04-15T16:13:24.956Z,101271.75
2023-04-15T16:15:51.333Z,101267.38
2023-04-15T16:18:18.216Z,101275.44
2023-04-15T16:20:44.615Z,101277.97
2023-04-15T16:23:16.342Z,101276.22
2023-04-15T16:25:44.439Z,101278.09
2023-04-15T16:28:23.096Z,101284.03
2023-04-15T16:30:52.080Z,101292.78
2023-04-15T16:33:18.563Z,101285.97
2023-04-15T16:35:44.931Z,101288.72
2023-04-15T16:38:11.334Z,101287.91
2023-04-15T16:40:38.062Z,101293.97
2023-04-15T16:43:07.292Z,101297.50
2023-04-15T16:45:33.729Z,101307.34
2023-04-15T16:48:00.394Z,101310.19
2023-04-15T16:50:27.134Z,101309.19
2023-04-15T16:52:54.909Z,101319.63
2023-04-15T16:55:21.459Z,101321.38
2023-04-15T16:58:02.117Z,101324.94
2023-04-15T17:00:30.960Z,101327.03
2023-04-15T17:02:57.810Z,101324.50
2023-04-15T17:05:24.615Z,101326.06
2023-04-15T17:07:50.958Z,101331.53
2023-04-15T17:10:17.533Z,101337.00
2023-04-15T17:12:43.909Z,101334.75
2023-04-15T17:15:10.436Z,101345.41
2023-04-15T17:17:36.872Z,101338.34
2023-04-15T17:20:04.125Z,101340.22
2023-04-15T17:22:30.668Z,101343.78
2023-04-15T17:24:57.108Z,101349.13
2023-04-15T17:27:24.612Z,101350.03
2023-04-15T17:29:50.994Z,101356.63
2023-04-15T17:32:17.707Z,101359.25
2023-04-15T17:34:50.329Z,101363.09
2023-04-15T17:37:17.830Z,101363.00
2023-04-15T17:39:44.248Z,101364.00
2023-04-15T17:42:11.251Z,101362.63
2023-04-15T17:44:37.617Z,101370.41
2023-04-15T17:47:08.455Z,101376.69
2023-04-15T17:49:37.555Z,101382.13
2023-04-15T17:52:04.166Z,101379.72
2023-04-15T17:54:30.550Z,101381.31
2023-04-15T17:56:57.933Z,101391.75
2023-04-15T17:59:24.497Z,101386.59
2023-04-15T18:01:51.150Z,101393.34
2023-04-15T18:04:17.669Z,101393.19
2023-04-15T18:06:44.312Z,101396.84
2023-04-15T18:09:11.231Z,101407.47
2023-04-15T18:11:39.979Z,101410.94
2023-04-15T18:14:26.621Z,101411.69
2023-04-15T18:17:00.382Z,101409.06
2023-04-15T18:19:27.192Z,101420.75
2023-04-15T18:21:53.560Z,101431.25
2023-04-15T18:24:19.928Z,101429.00
2023-04-15T18:26:48.784Z,101431.88
2023-04-15T18:29:15.540Z,101437.00
2023-04-15T18:31:45.017Z,101438.72
2023-04-15T18:34:11.433Z,101449.84
2023-04-15T18:36:37.973Z,101450.88
2023-04-15T18:39:08.194Z,101458.94
2023-04-15T18:41:41.151Z,101469.34
2023-04-15T18:44:10.727Z,101466.88
2023-04-15T18:46:37.072Z,101470.56
2023-04-15T18:49:04.188Z,101483.41
2023-04-15T18:51:30.830Z,101480.81
2023-04-15T18:54:03.614Z,101487.16
2023-04-15T18:56:30.804Z,101487.19
2023-04-15T18:59:08.620Z,101484.38
2023-04-15T19:01:43.984Z,101484.84
2023-04-15T19:04:11.170Z,101492.72
2023-04-15T19:06:37.848Z,101498.03
2023-04-15T19:09:04.471Z,101497.88
2023-04-15T19:11:31.243Z,101501.97
2023-04-15T19:13:57.646Z,101506.44
2023-04-15T19:16:24.154Z,101509.13
2023-04-15T19:18:50.575Z,101504.59
2023-04-15T19:21:17.005Z,101516.81
2023-04-15T19:23:43.497Z,101525.72
2023-04-15T19:26:11.481Z,101529.09
2023-04-15T19:28:41.615Z,101529.69
2023-04-15T19:31:08.037Z,101532.22
2023-04-15T19:33:34.426Z,101539.09
2023-04-15T19:36:12.190Z,101540.81
2023-04-15T19:38:42.001Z,101537.69
2023-04-15T19:41:10.562Z,101549.19
2023-04-15T19:43:37.263Z,101552.47
2023-04-15T19:46:03.684Z,101560.50
2023-04-15T19:48:30.601Z,101561.28
2023-04-15T19:50:57.574Z,101561.22
2023-04-15T19:53:25.482Z,101556.03
2023-04-15T19:55:51.969Z,101562.97
2023-04-15T19:58:18.308Z,101567.25
2023-04-15T20:00:44.683Z,101562.88
2023-04-15T20:03:11.144Z,101560.19
2023-04-15T20:05:37.635Z,101567.16
2023-04-15T20:08:04.299Z,101565.44
2023-04-15T20:10:31.583Z,101563.66
2023-04-15T20:12:58.013Z,101567.16
2023-04-15T20:15:28.065Z,101569.03
2023-04-15T20:17:54.804Z,101575.13
2023-04-15T20:20:21.571Z,101567.38
2023-04-15T20:22:48.668Z,101574.38
2023-04-15T20:25:15.196Z,101580.75
2023-04-15T20:27:41.800Z,101579.44
2023-04-15T20:30:08.781Z,101588.06
2023-04-15T20:32:35.852Z,101589.25
2023-04-15T20:35:04.144Z,101598.13
2023-04-15T20:37:32.964Z,101594.56
2023-04-15T20:40:00.173Z,101599.88
2023-04-15T20:42:27.450Z,101597.97
2023-04-15T20:44:53.854Z,101603.97
2023-04-15T20:47:20.303Z,101601.28
2023-04-15T20:49:47.326Z,101596.84
2023-04-15T20:52:13.704Z,101602.97
2023-04-15T20:54:40.081Z,101603.81
2023-04-15T20:57:06.472Z,101609.06
2023-04-15T20:59:34.558Z,101610.91
2023-04-15T21:02:01.320Z,101610.88
2023-04-15T21:04:27.803Z,101617.81
2023-04-15T21:06:54.225Z,101612.56
2023-04-15T21:09:20.596Z,101615.59
2023-04-15T21:12:00.427Z,101614.63
2023-04-15T21:14:27.350Z,101621.53
2023-04-15T21:16:53.962Z,101617.09
2023-04-15T21:19:20.391Z,101618.81
2023-04-15T21:21:47.034Z,101629.22
2023-04-15T21:24:19.904Z,101626.09
2023-04-15T21:26:49.456Z,101627.09
2023-04-15T21:29:15.843Z,101628.75
2023-04-15T21:31:42.414Z,101634.91
2023-04-15T21:34:14.183Z,101640.97
2023-04-15T21:36:46.875Z,101640.19
2023-04-15T21:39:13.248Z,101649.72
2023-04-15T21:41:39.634Z,101640.91
2023-04-15T21:44:14.756Z,101647.81
2023-04-15T21:46:46.048Z,101643.50
2023-04-15T21:49:20.391Z,101647.84
2023-04-15T21:51:47.878Z,101651.34
2023-04-15T21:54:14.352Z,101660.91
2023-04-15T21:56:42.936Z,101661.72
2023-04-15T21:59:09.369Z,101657.34
2023-04-15T22:01:35.884Z,101667.06
2023-04-15T22:04:04.578Z,101664.53
2023-04-15T22:06:31.655Z,101666.19
2023-04-15T22:08:58.102Z,101667.91
2023-04-15T22:11:30.270Z,101668.81
2023-04-15T22:13:57.467Z,101671.44
2023-04-15T22:16:27.037Z,101672.28
2023-04-15T22:18:54.086Z,101677.63
2023-04-15T22:21:20.610Z,101674.13
2023-04-15T22:23:48.241Z,101674.94
2023-04-15T22:26:14.754Z,101674.94
2023-04-15T22:28:41.562Z,101664.41
2023-04-15T22:31:08.112Z,101674.31
2023-04-15T22:33:34.512Z,101675.22
2023-04-15T22:36:01.074Z,101669.00
2023-04-15T22:38:27.551Z,101674.44
2023-04-15T22:40:54.172Z,101677.94
2023-04-15T22:43:20.654Z,101686.72
2023-04-15T22:45:50.959Z,101676.28
2023-04-15T22:48:18.753Z,101682.31
2023-04-15T22:50:45.659Z,101680.63
2023-04-15T22:53:12.531Z,101695.56
2023-04-15T22:55:38.958Z,101687.66
2023-04-15T22:58:05.482Z,101698.88
2023-04-15T23:00:31.858Z,101701.56
2023-04-15T23:02:58.399Z,101695.47
2023-04-15T23:05:24.925Z,101705.03
2023-04-15T23:07:51.363Z,101709.72
2023-04-15T23:10:17.807Z,101716.59
2023-04-15T23:12:44.210Z,101719.16
2023-04-15T23:15:11.520Z,101718.25
2023-04-15T23:17:37.971Z,101727.03
2023-04-15T23:20:04.672Z,101725.31
2023-04-15T23:22:31.069Z,101731.31
2023-04-15T23:24:57.421Z,101734.00
2023-04-15T23:27:23.793Z,101726.16
2023-04-15T23:29:50.142Z,101733.13
2023-04-15T23:32:16.650Z,101739.25
2023-04-15T23:34:43.121Z,101740.09
2023-04-15T23:37:09.577Z,101734.84
2023-04-15T23:39:36.150Z,101738.34
2023-04-15T23:42:03.273Z,101732.25
2023-04-15T23:44:29.639Z,101735.69
2023-04-15T23:46:56.047Z,101730.53
2023-04-15T23:49:22.453Z,101740.16
2023-04-15T23:51:48.888Z,101731.38
2023-04-15T23:54:15.269Z,101739.25
2023-04-15T23:56:41.668Z,101739.31
2023-04-15T23:59:08.327Z,101744.66
